createdAt,value
2018-09-27T00:00:23.262Z,14.50
2018-09-27T00:05:29.662Z,11.00
2018-09-27T00:08:00.188Z,12.50
2018-09-27T00:10:29.816Z,13.25
2018-09-27T00:12:59.309Z,12.75
2018-09-27T00:15:29.419Z,12.25
2018-09-27T00:17:58.972Z,13.00
2018-09-27T00:20:28.764Z,12.75
2018-09-27T00:22:59.984Z,13.50
2018-09-27T00:25:30.764Z,13.00
2018-09-27T00:28:01.582Z,12.00
2018-09-27T00:30:31.785Z,12.75
2018-09-27T00:33:01.722Z,12.00
2018-09-27T00:35:31.570Z,11.75
2018-09-27T00:38:01.273Z,11.50
2018-09-27T00:43:02.428Z,12.75
2018-09-27T00:45:35.315Z,14.00
2018-09-27T00:48:05.841Z,12.50
2018-09-27T00:50:35.567Z,12.00
2018-09-27T00:53:05.144Z,12.00
2018-09-27T00:55:35.074Z,11.25
2018-09-27T00:58:04.600Z,10.50
2018-09-27T01:00:34.516Z,12.00
2018-09-27T01:03:04.607Z,12.00
2018-09-27T01:05:35.065Z,11.75
2018-09-27T01:08:04.930Z,12.25
2018-09-27T01:10:34.823Z,9.00
2018-09-27T01:13:04.453Z,12.50
2018-09-27T01:19:52.521Z,12.00
2018-09-27T01:22:22.657Z,12.00
2018-09-27T01:24:52.095Z,12.50
2018-09-27T01:27:22.060Z,11.50
2018-09-27T01:29:51.430Z,10.00
2018-09-27T01:32:20.993Z,12.75
2018-09-27T01:34:50.484Z,10.00
2018-09-27T01:37:20.007Z,12.25
2018-09-27T01:39:49.439Z,12.25
2018-09-27T01:42:19.448Z,12.00
2018-09-27T01:44:48.996Z,12.75
2018-09-27T01:47:18.937Z,12.00
2018-09-27T01:49:48.658Z,12.00
2018-09-27T01:52:18.072Z,13.25
2018-09-27T01:54:47.411Z,13.00
2018-09-27T01:57:27.872Z,12.00
2018-09-27T01:59:57.333Z,12.25
2018-09-27T02:02:28.737Z,13.50
2018-09-27T02:04:58.108Z,13.00
2018-09-27T02:07:27.506Z,15.50
2018-09-27T02:09:59.079Z,13.00
2018-09-27T02:12:28.956Z,14.75
2018-09-27T02:14:58.335Z,9.00
2018-09-27T02:17:28.460Z,12.00
2018-09-27T02:19:57.897Z,13.50
2018-09-27T02:22:27.286Z,12.00
2018-09-27T02:24:57.683Z,15.00
2018-09-27T02:27:27.296Z,12.75
2018-09-27T02:29:57.297Z,12.50
2018-09-27T02:32:27.838Z,17.50
2018-09-27T02:37:55.584Z,14.00
2018-09-27T02:40:42.603Z,12.00
2018-09-27T02:43:14.329Z,10.75
2018-09-27T02:45:44.333Z,11.50
2018-09-27T02:48:13.604Z,10.75
2018-09-27T02:50:44.354Z,11.75
2018-09-27T02:53:14.278Z,12.00
2018-09-27T02:55:45.142Z,13.75
2018-09-27T02:58:20.801Z,15.25
2018-09-27T03:00:51.268Z,11.50
2018-09-27T03:03:32.859Z,12.00
2018-09-27T03:06:04.188Z,10.00
2018-09-27T03:08:50.094Z,12.50
2018-09-27T03:11:20.015Z,10.75
2018-09-27T03:13:50.190Z,14.25
2018-09-27T03:16:19.832Z,10.50
2018-09-27T03:18:53.989Z,12.00
2018-09-27T03:21:24.077Z,14.00
2018-09-27T03:23:54.513Z,13.50
2018-09-27T03:26:26.080Z,11.75
2018-09-27T03:28:56.195Z,12.00
2018-09-27T03:31:28.179Z,11.25
2018-09-27T03:34:05.555Z,14.50
2018-09-27T03:36:36.194Z,12.25
2018-09-27T03:39:09.590Z,12.00
2018-09-27T03:41:42.677Z,12.75
2018-09-27T03:44:15.866Z,11.00
2018-09-27T03:46:46.609Z,11.25
2018-09-27T03:49:20.599Z,15.75
2018-09-27T03:51:51.646Z,14.25
2018-09-27T03:54:22.621Z,12.00
2018-09-27T03:56:53.655Z,12.00
2018-09-27T03:59:25.963Z,12.00
2018-09-27T04:01:57.459Z,15.50
2018-09-27T04:04:31.009Z,12.00
2018-09-27T04:07:10.633Z,13.75
2018-09-27T04:09:40.328Z,9.75
2018-09-27T04:12:11.891Z,11.25
2018-09-27T04:14:44.120Z,11.25
2018-09-27T04:17:15.573Z,11.50
2018-09-27T04:19:46.269Z,11.00
2018-09-27T04:22:23.324Z,11.00
2018-09-27T04:24:56.385Z,12.25
2018-09-27T04:27:26.412Z,12.25
2018-09-27T04:29:56.074Z,11.00
2018-09-27T04:32:27.252Z,9.25
2018-09-27T04:34:58.430Z,12.50
2018-09-27T04:37:32.258Z,11.00
2018-09-27T04:40:03.409Z,13.75
2018-09-27T04:42:34.708Z,11.50
2018-09-27T04:45:18.441Z,11.25
2018-09-27T04:47:49.268Z,10.50
2018-09-27T04:50:19.317Z,13.00
2018-09-27T04:52:50.040Z,13.25
2018-09-27T04:55:22.130Z,12.00
2018-09-27T04:57:53.665Z,13.50
2018-09-27T05:00:37.207Z,9.00
2018-09-27T05:03:07.621Z,11.50
2018-09-27T05:05:39.143Z,13.00
2018-09-27T05:08:10.470Z,11.50
2018-09-27T05:10:40.766Z,14.25
2018-09-27T05:13:12.293Z,15.00
2018-09-27T05:15:58.538Z,14.00
2018-09-27T05:18:40.643Z,15.50
2018-09-27T05:21:11.242Z,15.00
2018-09-27T05:23:45.882Z,11.00
2018-09-27T05:26:21.865Z,15.00
2018-09-27T05:28:57.197Z,11.75
2018-09-27T05:31:27.837Z,11.75
2018-09-27T05:34:03.532Z,12.75
2018-09-27T05:36:32.985Z,12.25
2018-09-27T05:39:08.482Z,13.25
2018-09-27T05:41:41.901Z,11.75
2018-09-27T05:44:12.266Z,15.00
2018-09-27T05:46:42.974Z,12.00
2018-09-27T05:49:13.323Z,16.25
2018-09-27T05:51:49.204Z,11.75
2018-09-27T05:54:45.849Z,13.75
2018-09-27T05:57:16.297Z,15.00
2018-09-27T05:59:52.808Z,15.00
2018-09-27T06:02:25.519Z,16.25
2018-09-27T06:05:01.852Z,16.00
2018-09-27T06:07:32.954Z,16.00
2018-09-27T06:10:05.274Z,14.25
2018-09-27T06:12:35.243Z,16.00
2018-09-27T06:15:16.657Z,18.75
2018-09-27T06:17:50.099Z,15.00
2018-09-27T06:20:27.275Z,18.75
2018-09-27T06:23:01.882Z,15.25
2018-09-27T06:25:35.386Z,17.75
2018-09-27T06:28:06.681Z,16.00
2018-09-27T06:30:42.134Z,21.25
2018-09-27T06:33:24.352Z,15.25
2018-09-27T06:35:56.368Z,19.25
2018-09-27T06:38:52.919Z,18.25
2018-09-27T06:41:27.711Z,17.25
2018-09-27T06:43:59.576Z,18.50
2018-09-27T06:46:30.435Z,16.00
2018-09-27T06:49:24.442Z,18.25
2018-09-27T06:55:30.869Z,15.50
2018-09-27T06:58:03.470Z,17.25
2018-09-27T07:00:34.586Z,17.00
2018-09-27T07:03:04.180Z,13.50
2018-09-27T07:05:34.231Z,18.50
2018-09-27T07:08:04.227Z,16.75
2018-09-27T07:10:34.190Z,13.00
2018-09-27T07:13:03.446Z,16.25
2018-09-27T07:15:36.162Z,14.00
2018-09-27T07:18:11.766Z,13.25
2018-09-27T07:20:42.192Z,13.00
2018-09-27T07:23:13.096Z,15.75
2018-09-27T07:25:44.477Z,13.75
2018-09-27T07:28:15.518Z,12.00
2018-09-27T07:30:45.146Z,13.75
2018-09-27T07:33:14.804Z,15.50
2018-09-27T07:35:44.596Z,12.00
2018-09-27T07:38:18.389Z,15.00
2018-09-27T07:40:49.269Z,13.00
2018-09-27T07:43:21.678Z,13.00
2018-09-27T07:45:59.324Z,13.50
2018-09-27T07:48:40.651Z,13.00
2018-09-27T07:51:13.315Z,13.00
2018-09-27T07:53:47.021Z,12.00
2018-09-27T07:56:17.660Z,12.50
2018-09-27T07:58:48.661Z,18.25
2018-09-27T08:01:21.141Z,14.25
2018-09-27T08:04:00.462Z,16.00
2018-09-27T08:06:54.607Z,12.50
2018-09-27T08:09:24.830Z,12.00
2018-09-27T08:11:55.231Z,14.00
2018-09-27T08:15:05.316Z,11.25
2018-09-27T08:17:47.582Z,11.75
2018-09-27T08:21:23.538Z,10.25
2018-09-27T08:23:54.367Z,11.25
2018-09-27T08:26:24.312Z,9.75
2018-09-27T08:28:55.553Z,10.50
2018-09-27T08:31:28.254Z,12.00
2018-09-27T08:33:57.879Z,11.00
2018-09-27T08:36:28.733Z,12.50
2018-09-27T08:38:59.028Z,11.00
2018-09-27T08:41:28.832Z,11.75
2018-09-27T08:44:01.964Z,11.00
2018-09-27T08:46:35.726Z,11.00
2018-09-27T08:49:10.107Z,10.00
2018-09-27T08:52:00.726Z,10.00
2018-09-27T08:54:37.808Z,11.75
2018-09-27T08:57:20.584Z,11.00
2018-09-27T08:59:53.559Z,10.00
2018-09-27T09:02:25.292Z,11.25
2018-09-27T09:07:39.471Z,9.00
2018-09-27T09:10:11.485Z,10.25
2018-09-27T09:12:44.134Z,10.75
2018-09-27T09:15:24.777Z,13.50
2018-09-27T09:17:59.865Z,9.50
2018-09-27T09:20:30.510Z,11.50
2018-09-27T09:26:18.136Z,9.25
2018-09-27T09:28:48.410Z,9.25
2018-09-27T09:31:26.132Z,11.25
2018-09-27T09:33:56.228Z,10.75
2018-09-27T09:36:33.379Z,10.25
2018-09-27T09:39:04.863Z,10.25
2018-09-27T09:41:37.895Z,9.75
2018-09-27T09:44:08.409Z,11.25
2018-09-27T09:46:39.802Z,7.50
2018-09-27T09:49:15.387Z,11.00
2018-09-27T09:51:44.653Z,11.25
2018-09-27T09:54:15.817Z,10.75
2018-09-27T09:56:50.018Z,10.25
2018-09-27T09:59:21.768Z,9.75
2018-09-27T10:01:57.150Z,9.00
2018-09-27T10:04:28.638Z,12.25
2018-09-27T10:07:01.602Z,9.00
2018-09-27T10:09:39.549Z,10.50
2018-09-27T10:12:14.733Z,11.00
2018-09-27T10:14:47.840Z,9.75
2018-09-27T10:17:24.798Z,10.50
2018-09-27T10:19:58.166Z,15.75
2018-09-27T10:22:42.461Z,9.00
2018-09-27T10:25:14.760Z,13.00
2018-09-27T10:27:47.649Z,10.25
2018-09-27T10:33:38.562Z,11.75
2018-09-27T10:36:19.768Z,11.75
2018-09-27T10:41:39.134Z,10.50
2018-09-27T10:44:13.228Z,9.50
2018-09-27T10:46:46.350Z,9.75
2018-09-27T10:49:19.742Z,11.50
2018-09-27T10:51:51.179Z,13.50
2018-09-27T10:54:22.151Z,9.75
2018-09-27T10:59:27.873Z,11.50
2018-09-27T11:04:39.993Z,10.25
2018-09-27T11:07:16.403Z,11.00
2018-09-27T11:09:47.477Z,10.00
2018-09-27T11:12:19.479Z,12.00
2018-09-27T11:14:52.180Z,11.00
2018-09-27T11:17:22.847Z,10.50
2018-09-27T11:20:02.289Z,12.75
2018-09-27T11:22:41.306Z,11.00
2018-09-27T11:25:15.672Z,13.25
2018-09-27T11:27:51.440Z,10.75
2018-09-27T11:30:27.458Z,8.50
2018-09-27T11:33:04.277Z,12.50
2018-09-27T11:35:41.849Z,13.50
2018-09-27T11:38:15.890Z,14.00
2018-09-27T11:41:52.592Z,15.50
2018-09-27T11:44:28.099Z,12.00
2018-09-27T11:47:00.723Z,12.00
2018-09-27T11:49:33.533Z,11.00
2018-09-27T11:52:06.055Z,9.25
2018-09-27T11:54:45.856Z,13.00
2018-09-27T11:57:28.100Z,11.50
2018-09-27T12:00:08.312Z,12.25
2018-09-27T12:02:41.907Z,17.25
2018-09-27T12:05:17.861Z,11.00
2018-09-27T12:07:52.219Z,10.00
2018-09-27T12:15:57.346Z,11.50
2018-09-27T12:18:28.707Z,11.00
2018-09-27T12:21:01.263Z,10.00
2018-09-27T12:23:34.577Z,7.75
2018-09-27T12:26:11.980Z,11.00
2018-09-27T12:28:41.996Z,6.75
2018-09-27T12:31:11.707Z,7.75
2018-09-27T12:33:41.887Z,9.00
2018-09-27T12:36:13.162Z,9.75
2018-09-27T12:38:43.317Z,9.25
2018-09-27T12:41:14.827Z,6.75
2018-09-27T12:43:45.505Z,8.25
2018-09-27T12:46:15.151Z,8.00
2018-09-27T12:48:44.568Z,5.50
2018-09-27T12:51:15.357Z,7.00
2018-09-27T12:53:44.918Z,7.25
2018-09-27T12:56:18.721Z,6.00
2018-09-27T12:58:51.471Z,5.00
2018-09-27T13:01:33.232Z,6.00
2018-09-27T13:04:04.324Z,5.00
2018-09-27T13:13:27.158Z,6.00
2018-09-27T13:15:58.679Z,11.00
2018-09-27T13:18:29.085Z,8.25
2018-09-27T13:20:59.577Z,6.00
2018-09-27T13:26:13.499Z,5.75
2018-09-27T13:28:51.028Z,10.25
2018-09-27T13:31:21.682Z,6.00
2018-09-27T13:36:32.610Z,8.00
2018-09-27T13:39:20.523Z,7.25
2018-09-27T13:41:51.625Z,13.50
2018-09-27T13:44:22.807Z,12.25
2018-09-27T13:46:52.961Z,12.00
2018-09-27T13:49:26.225Z,13.25
2018-09-27T13:54:32.650Z,14.00
2018-09-27T13:57:05.112Z,13.00
2018-09-27T13:59:42.621Z,12.25
2018-09-27T14:02:22.172Z,13.75
2018-09-27T14:04:53.353Z,14.00
2018-09-27T14:07:25.541Z,14.25
2018-09-27T14:10:04.943Z,10.25
2018-09-27T14:12:37.487Z,10.75
2018-09-27T14:15:19.608Z,13.00
2018-09-27T14:17:56.663Z,13.25
2018-09-27T14:20:31.887Z,16.25
2018-09-27T14:23:27.244Z,12.00
2018-09-27T14:26:20.877Z,10.75
2018-09-27T14:28:58.142Z,9.00
2018-09-27T14:31:47.593Z,8.75
2018-09-27T14:34:30.371Z,9.25
2018-09-27T14:37:03.731Z,12.25
2018-09-27T14:39:46.994Z,7.00
2018-09-27T14:42:19.477Z,9.75
2018-09-27T14:45:07.401Z,10.00
2018-09-27T14:47:38.292Z,9.75
2018-09-27T14:50:15.727Z,9.00
2018-09-27T14:53:11.777Z,9.75
2018-09-27T14:55:52.243Z,9.00
2018-09-27T15:01:25.474Z,7.00
2018-09-27T15:04:00.584Z,6.50
2018-09-27T15:06:43.638Z,9.25
2018-09-27T15:09:29.577Z,5.25
2018-09-27T15:12:17.993Z,7.25
2018-09-27T15:14:48.080Z,7.00
2018-09-27T15:17:19.321Z,7.00
2018-09-27T15:19:50.812Z,7.25
2018-09-27T15:22:23.058Z,6.00
2018-09-27T15:24:53.746Z,9.75
2018-09-27T15:27:42.507Z,9.50
2018-09-27T15:30:26.456Z,8.00
2018-09-27T15:32:57.799Z,8.75
2018-09-27T15:35:30.688Z,9.25
2018-09-27T15:38:02.772Z,6.50
2018-09-27T15:40:38.223Z,9.25
2018-09-27T15:43:08.369Z,8.25
2018-09-27T15:45:39.339Z,8.00
2018-09-27T15:48:20.469Z,8.75
2018-09-27T15:50:57.968Z,9.75
2018-09-27T15:53:38.471Z,8.00
2018-09-27T15:58:59.756Z,13.50
2018-09-27T16:01:35.702Z,7.25
2018-09-27T16:04:14.572Z,7.75
2018-09-27T16:06:51.570Z,10.00
2018-09-27T16:12:23.841Z,12.75
2018-09-27T16:15:01.001Z,14.00
2018-09-27T16:17:34.282Z,13.00
2018-09-27T16:20:03.942Z,14.00
2018-09-27T16:22:39.314Z,12.00
2018-09-27T16:25:14.524Z,14.25
2018-09-27T16:27:48.310Z,11.25
2018-09-27T16:30:20.879Z,13.50
2018-09-27T16:33:01.934Z,14.00
2018-09-27T16:35:46.273Z,13.00
2018-09-27T16:38:17.446Z,13.75
2018-09-27T16:40:49.753Z,14.50
2018-09-27T16:43:22.531Z,15.25
2018-09-27T16:45:53.684Z,15.50
2018-09-27T16:48:41.516Z,17.25
2018-09-27T16:51:19.122Z,17.50
2018-09-27T16:53:56.906Z,13.25
2018-09-27T16:56:38.211Z,12.75
2018-09-27T16:59:11.245Z,12.00
2018-09-27T17:01:44.390Z,14.00
2018-09-27T17:07:12.367Z,16.00
2018-09-27T17:09:47.318Z,13.50
2018-09-27T17:12:24.494Z,15.75
2018-09-27T17:17:37.564Z,16.00
2018-09-27T17:20:22.040Z,16.75
2018-09-27T17:22:54.176Z,14.25
2018-09-27T17:25:49.496Z,17.25
2018-09-27T17:28:20.982Z,16.00
2018-09-27T17:30:58.803Z,14.50
2018-09-27T17:33:50.959Z,16.00
2018-09-27T17:36:51.518Z,13.75
2018-09-27T17:39:22.556Z,11.50
2018-09-27T17:41:56.056Z,12.75
2018-09-27T17:44:41.424Z,14.50
2018-09-27T17:47:33.142Z,16.50
2018-09-27T17:50:04.800Z,19.00
2018-09-27T17:52:37.646Z,16.00
2018-09-27T17:55:13.548Z,17.25
2018-09-27T17:57:47.965Z,16.25
2018-09-27T18:00:28.413Z,15.25
2018-09-27T18:02:59.179Z,14.75
2018-09-27T18:05:37.066Z,16.00
2018-09-27T18:08:10.230Z,17.75
2018-09-27T18:10:41.562Z,16.00
2018-09-27T18:13:13.423Z,18.00
2018-09-27T18:15:47.833Z,17.25
2018-09-27T18:18:23.102Z,14.00
2018-09-27T18:21:00.125Z,14.50
2018-09-27T18:23:29.773Z,16.50
2018-09-27T18:26:00.268Z,14.50
2018-09-27T18:28:34.586Z,13.75
2018-09-27T18:31:18.604Z,12.00
2018-09-27T18:33:52.911Z,11.75
2018-09-27T18:36:29.086Z,11.50
2018-09-27T18:39:03.549Z,11.25
2018-09-27T18:41:39.726Z,12.00
2018-09-27T18:44:16.953Z,12.25
2018-09-27T18:46:48.991Z,13.75
2018-09-27T18:49:23.554Z,13.25
2018-09-27T18:51:58.447Z,13.75
2018-09-27T18:54:37.719Z,11.75
2018-09-27T18:57:13.501Z,13.25
2018-09-27T19:00:01.813Z,15.00
2018-09-27T19:02:36.617Z,13.00
2018-09-27T19:05:18.933Z,12.25
2018-09-27T19:07:51.586Z,14.00
2018-09-27T19:10:39.481Z,13.00
2018-09-27T19:13:19.906Z,13.50
2018-09-27T19:16:11.031Z,15.25
2018-09-27T19:18:45.973Z,15.50
2018-09-27T19:21:21.935Z,16.25
2018-09-27T19:26:41.333Z,13.25
2018-09-27T19:29:18.583Z,14.50
2018-09-27T19:31:57.602Z,12.50
2018-09-27T19:34:33.762Z,11.00
2018-09-27T19:37:12.219Z,11.25
2018-09-27T19:39:46.642Z,11.25
2018-09-27T19:42:22.980Z,9.25
2018-09-27T19:44:58.139Z,8.75
2018-09-27T19:47:32.014Z,10.00
2018-09-27T19:50:05.538Z,13.75
2018-09-27T19:52:50.769Z,11.00
2018-09-27T19:55:47.633Z,11.75
2018-09-27T19:58:24.346Z,10.00
2018-09-27T20:03:46.679Z,11.00
2018-09-27T20:06:24.506Z,10.50
2018-09-27T20:08:57.314Z,9.75
2018-09-27T20:11:43.625Z,11.00
2018-09-27T20:14:15.600Z,10.25
2018-09-27T20:16:50.185Z,12.75
2018-09-27T20:19:21.581Z,13.25
2018-09-27T20:21:52.700Z,12.75
2018-09-27T20:24:25.846Z,14.75
2018-09-27T20:27:01.916Z,10.75
2018-09-27T20:29:35.507Z,12.50
2018-09-27T20:32:11.957Z,11.00
2018-09-27T20:34:43.287Z,11.75
2018-09-27T20:37:15.836Z,10.00
2018-09-27T20:39:45.634Z,15.00
2018-09-27T20:42:28.017Z,13.25
2018-09-27T20:45:00.890Z,14.00
2018-09-27T20:47:32.894Z,13.00
2018-09-27T20:50:07.836Z,13.00
2018-09-27T20:52:43.105Z,12.25
2018-09-27T20:55:19.343Z,13.25
2018-09-27T20:57:53.718Z,13.25
2018-09-27T21:00:28.669Z,13.50
2018-09-27T21:03:06.547Z,16.75
2018-09-27T21:05:38.735Z,13.75
2018-09-27T21:08:09.822Z,12.00
2018-09-27T21:10:41.548Z,12.00
2018-09-27T21:13:13.456Z,12.50
2018-09-27T21:15:46.221Z,15.75
2018-09-27T21:18:16.563Z,14.50
2018-09-27T21:20:49.282Z,13.75
2018-09-27T21:23:22.008Z,13.75
2018-09-27T21:25:54.707Z,14.00
2018-09-27T21:28:26.329Z,14.50
2018-09-27T21:30:57.321Z,13.25
2018-09-27T21:33:29.032Z,13.50
2018-09-27T21:36:03.203Z,16.75
2018-09-27T21:38:33.540Z,14.50
2018-09-27T21:41:09.388Z,13.00
2018-09-27T21:43:46.181Z,16.00
2018-09-27T21:46:19.106Z,17.00
2018-09-27T21:48:49.260Z,16.00
2018-09-27T21:51:19.985Z,14.75
2018-09-27T21:53:51.890Z,15.25
2018-09-27T21:56:23.616Z,14.50
2018-09-27T21:58:53.649Z,20.50
2018-09-27T22:01:25.181Z,20.50
2018-09-27T22:03:55.412Z,20.00
2018-09-27T22:06:26.344Z,17.25
2018-09-27T22:09:00.334Z,20.25
2018-09-27T22:11:30.498Z,21.00
2018-09-27T22:14:00.802Z,20.75
2018-09-27T22:16:32.789Z,22.00
2018-09-27T22:19:02.551Z,21.00
2018-09-27T22:21:34.585Z,18.75
2018-09-27T22:24:05.235Z,22.75
2018-09-27T22:26:35.639Z,16.75
2018-09-27T22:29:06.136Z,19.00
2018-09-27T22:31:36.447Z,17.50
2018-09-27T22:34:06.096Z,18.75
2018-09-27T22:36:38.418Z,19.50
2018-09-27T22:39:11.101Z,21.00
2018-09-27T22:41:41.174Z,16.50
2018-09-27T22:44:10.862Z,15.00
2018-09-27T22:46:47.689Z,19.50
2018-09-27T22:49:18.135Z,16.00
2018-09-27T22:51:49.507Z,18.50
2018-09-27T22:54:19.634Z,17.75
2018-09-27T22:56:50.019Z,18.75
2018-09-27T22:59:20.832Z,17.75
2018-09-27T23:01:51.770Z,18.25
2018-09-27T23:04:21.922Z,16.75
2018-09-27T23:06:55.209Z,19.50
2018-09-27T23:09:24.752Z,17.00
2018-09-27T23:11:54.797Z,15.00
2018-09-27T23:14:27.382Z,18.50
2018-09-27T23:16:57.370Z,18.75
2018-09-27T23:19:28.403Z,18.75
2018-09-27T23:21:59.150Z,16.75
2018-09-27T23:24:29.786Z,18.25
2018-09-27T23:26:59.967Z,15.50
2018-09-27T23:29:29.374Z,17.50
2018-09-27T23:31:58.699Z,14.50
2018-09-27T23:34:29.441Z,20.50
2018-09-27T23:37:00.164Z,22.50
2018-09-27T23:39:29.724Z,18.25
2018-09-27T23:41:59.464Z,20.50
2018-09-27T23:44:30.420Z,19.75
2018-09-27T23:47:04.549Z,19.50
2018-09-27T23:49:35.478Z,18.50
2018-09-27T23:52:04.999Z,16.75
2018-09-27T23:54:35.196Z,19.00
2018-09-27T23:57:05.785Z,16.00
2018-09-27T23:59:36.674Z,19.75
